Time;durP1;ratioP1;P1;durP2;ratioP2;P2;SDS_P1;SDS_P2;PMS_P1;PMS_P2;Temp;Humidity;BMP_temperature;BMP_pressure;BME280_temperature;BME280_humidity;BME280_pressure;Samples;Min_cycle;Max_cycle;Signal;HPM_P1;HPM_P2
2023/12/01 00:00:18;;;;;;;1.58;1.58;;;;;;;-0.98;85.80;95961.38;5008584;28;20065;-71
2023/12/01 00:02:46;;;;;;;1.13;1.13;;;;;;;-0.88;85.61;95968.09;5005993;28;20049;-71
2023/12/01 00:05:14;;;;;;;1.33;1.33;;;;;;;-0.92;85.45;95968.56;5008471;28;20050;-72
2023/12/01 00:07:42;;;;;;;1.45;1.45;;;;;;;-0.81;85.17;95978.72;5007721;28;20119;-72
2023/12/01 00:10:10;;;;;;;1.13;1.13;;;;;;;-0.80;85.06;95980.34;5005669;28;20042;-73
2023/12/01 00:12:39;;;;;;;1.45;1.45;;;;;;;-0.90;84.83;95964.81;5009120;28;20046;-73
2023/12/01 00:15:07;;;;;;;1.23;1.23;;;;;;;-0.91;84.92;95963.19;5009462;28;20088;-73
2023/12/01 00:17:35;;;;;;;1.10;1.10;;;;;;;-0.87;84.92;95974.16;5008258;28;20077;-73
2023/12/01 00:20:04;;;;;;;0.98;0.98;;;;;;;-0.89;84.67;95965.63;5008488;28;20038;-72
2023/12/01 00:22:31;;;;;;;1.05;1.05;;;;;;;-0.87;84.64;95958.44;5009252;28;20104;-73
2023/12/01 00:24:59;;;;;;;1.10;1.10;;;;;;;-0.93;84.32;95970.38;5007288;28;20124;-72
2023/12/01 00:27:27;;;;;;;1.13;1.13;;;;;;;-0.97;84.25;95957.78;5008736;28;20042;-71
2023/12/01 00:29:56;;;;;;;1.27;1.27;;;;;;;-0.94;84.38;95952.25;5005478;28;20084;-72
2023/12/01 00:32:23;;;;;;;1.27;1.20;;;;;;;-0.97;84.42;95949.94;5022973;28;20491;-72
2023/12/01 00:34:51;;;;;;;1.45;1.45;;;;;;;-0.88;84.83;95941.09;5007613;28;20092;-73
2023/12/01 00:37:18;;;;;;;1.40;1.40;;;;;;;-0.94;84.24;95965.31;5004582;28;20053;-73
2023/12/01 00:39:46;;;;;;;1.33;1.33;;;;;;;-1.01;84.21;95962.53;5005412;28;20120;-73
2023/12/01 00:42:14;;;;;;;1.25;1.25;;;;;;;-0.96;83.93;95944.53;5002875;28;20109;-72
2023/12/01 00:44:42;;;;;;;1.08;1.08;;;;;;;-0.94;84.19;95945.19;5007628;28;20069;-72
2023/12/01 00:47:11;;;;;;;1.40;1.40;;;;;;;-0.95;84.54;95951.41;5005843;28;20085;-72
2023/12/01 00:49:38;;;;;;;1.17;1.17;;;;;;;-0.96;84.53;95959.44;5008517;28;20505;-72
2023/12/01 00:52:06;;;;;;;1.27;1.27;;;;;;;-0.96;85.07;95969.91;5004733;28;20050;-72
2023/12/01 00:54:34;;;;;;;1.00;1.00;;;;;;;-0.97;84.41;95981.34;5029012;28;20046;-72
2023/12/01 00:57:02;;;;;;;1.17;1.17;;;;;;;-1.04;84.49;95983.00;5016516;28;20041;-71
2023/12/01 00:59:29;;;;;;;1.23;1.23;;;;;;;-1.05;85.09;95974.31;5007077;28;20038;-72
2023/12/01 01:01:57;;;;;;;1.30;1.30;;;;;;;-1.13;85.35;95972.50;5005725;28;20073;-72
2023/12/01 01:04:26;;;;;;;0.52;0.52;;;;;;;-1.11;85.42;95969.72;5021553;28;20438;-71
2023/12/01 01:06:54;;;;;;;1.33;1.33;;;;;;;-0.99;85.16;95980.69;5006753;28;20104;-71
2023/12/01 01:09:22;;;;;;;1.13;1.13;;;;;;;-1.05;85.04;95978.75;5006266;28;20514;-72
2023/12/01 01:11:49;;;;;;;1.30;1.30;;;;;;;-0.97;84.55;95987.41;5008070;28;20487;-72
2023/12/01 01:14:17;;;;;;;1.30;1.30;;;;;;;-1.21;84.88;95992.63;5005334;28;20507;-73
2023/12/01 01:16:46;;;;;;;0.90;0.90;;;;;;;-1.27;85.48;95993.28;5004105;28;20352;-73
2023/12/01 01:19:13;;;;;;;1.33;1.33;;;;;;;-1.33;85.04;95993.91;5006653;28;20418;-73
2023/12/01 01:21:43;;;;;;;1.10;1.10;;;;;;;-1.42;85.79;96016.63;5005474;28;20144;-72
2023/12/01 01:24:10;;;;;;;1.05;1.05;;;;;;;-1.43;86.43;96022.81;5024294;28;20104;-73
2023/12/01 01:26:38;;;;;;;1.17;1.17;;;;;;;-1.40;86.53;95985.06;5003495;28;20516;-72
2023/12/01 01:29:05;;;;;;;1.35;1.35;;;;;;;-1.28;85.95;95995.06;5007334;28;20042;-72
2023/12/01 01:31:33;;;;;;;0.88;0.88;;;;;;;-1.25;86.41;96002.59;5004006;28;20050;-72
2023/12/01 01:34:01;;;;;;;1.35;1.35;;;;;;;-1.25;86.24;95984.28;5022886;28;20045;-73
2023/12/01 01:36:29;;;;;;;1.40;1.40;;;;;;;-1.14;86.37;95989.19;5003904;28;20050;-72
2023/12/01 01:38:57;;;;;;;1.25;1.25;;;;;;;-1.08;85.86;95972.03;5007065;28;20068;-72
2023/12/01 01:41:25;;;;;;;1.52;1.52;;;;;;;-0.96;86.11;95959.44;5004030;28;20390;-72
2023/12/01 01:43:53;;;;;;;0.55;0.55;;;;;;;-0.90;85.77;95964.00;5005236;28;20493;-72
2023/12/01 01:46:21;;;;;;;1.08;1.08;;;;;;;-0.82;85.77;95935.19;5021296;28;20065;-72
2023/12/01 01:48:48;;;;;;;1.27;1.27;;;;;;;-0.79;85.57;95940.91;5012514;28;20049;-73
2023/12/01 01:51:16;;;;;;;1.90;1.88;;;;;;;-0.81;85.23;95937.66;5011687;28;20046;-72
2023/12/01 01:53:44;;;;;;;1.33;1.33;;;;;;;-0.79;85.04;95976.75;5021199;28;20064;-72
2023/12/01 01:56:13;;;;;;;1.52;1.52;;;;;;;-0.82;85.31;95980.53;4999837;28;20064;-72
2023/12/01 01:58:42;;;;;;;1.08;1.08;;;;;;;-0.83;85.63;95985.94;5022249;28;20153;-72
2023/12/01 02:01:09;;;;;;;1.13;1.13;;;;;;;-0.85;85.17;95995.75;5002289;28;20064;-72
2023/12/01 02:03:38;;;;;;;1.52;1.52;;;;;;;-0.84;85.49;96000.03;5004717;28;20590;-72
2023/12/01 02:06:07;;;;;;;1.25;1.25;;;;;;;-0.79;85.30;95974.97;5004594;28;20052;-73
2023/12/01 02:08:36;;;;;;;1.33;1.33;;;;;;;-0.83;85.12;95993.81;5006539;28;20117;-72
2023/12/01 02:11:04;;;;;;;1.27;1.27;;;;;;;-0.85;85.69;95964.34;5006634;28;20042;-72
2023/12/01 02:13:33;;;;;;;1.15;1.15;;;;;;;-0.77;85.61;95966.94;5010207;28;20046;-72
2023/12/01 02:16:00;;;;;;;1.23;1.23;;;;;;;-0.75;85.17;95999.84;5008569;28;20073;-73
2023/12/01 02:18:30;;;;;;;1.23;1.23;;;;;;;-0.83;85.16;95999.81;5014446;28;20117;-72
2023/12/01 02:20:59;;;;;;;1.25;1.25;;;;;;;-0.78;84.93;96008.03;5012849;28;20050;-72
2023/12/01 02:23:28;;;;;;;1.52;1.52;;;;;;;-0.82;85.19;96003.25;5020891;28;20100;-72
2023/12/01 02:25:56;;;;;;;0.98;0.98;;;;;;;-0.85;85.41;96012.28;5007015;28;20041;-72
2023/12/01 02:28:24;;;;;;;1.95;1.85;;;;;;;-0.88;85.54;96002.13;5003406;28;20112;-72
2023/12/01 02:30:53;;;;;;;0.90;0.90;;;;;;;-0.86;85.94;96007.22;5005254;28;20082;-71
2023/12/01 02:33:22;;;;;;;1.08;1.08;;;;;;;-0.83;85.93;96025.22;5005652;28;20053;-72
2023/12/01 02:35:51;;;;;;;1.17;1.17;;;;;;;-0.88;86.08;95996.91;5024452;28;20050;-72
2023/12/01 02:38:19;;;;;;;1.25;1.25;;;;;;;-0.86;87.03;95996.75;5005504;28;20042;-72
2023/12/01 02:40:50;;;;;;;1.25;1.25;;;;;;;-0.83;86.45;95991.19;5008582;28;20041;-71
2023/12/01 02:43:20;;;;;;;1.15;1.15;;;;;;;-0.81;86.34;95989.19;5009780;28;20056;-71
2023/12/01 02:45:48;;;;;;;1.85;1.85;;;;;;;-0.83;85.92;95999.81;5009215;28;20045;-72
2023/12/01 02:48:16;;;;;;;1.10;1.10;;;;;;;-0.97;85.86;95982.19;5024963;28;20042;-71
2023/12/01 02:50:45;;;;;;;1.02;1.02;;;;;;;-1.02;85.93;95970.53;5008295;28;20347;-71
2023/12/01 02:53:13;;;;;;;1.58;1.58;;;;;;;-0.94;85.88;95989.72;5026770;28;20088;-71
2023/12/01 02:55:40;;;;;;;1.83;1.83;;;;;;;-0.94;85.36;95984.47;5007620;28;20042;-71
2023/12/01 02:58:09;;;;;;;1.20;1.20;;;;;;;-0.93;85.87;95980.03;5007496;28;20049;-72
2023/12/01 03:00:37;;;;;;;1.30;1.30;;;;;;;-0.98;85.93;95985.78;5006438;28;20034;-72
2023/12/01 03:03:05;;;;;;;1.00;1.00;;;;;;;-1.03;86.12;95984.59;5007282;28;20057;-72
2023/12/01 03:05:33;;;;;;;1.20;1.20;;;;;;;-1.05;86.15;95997.88;5005587;28;20088;-72
2023/12/01 03:08:00;;;;;;;1.65;1.65;;;;;;;-1.04;86.38;95994.28;5008145;28;20570;-72
2023/12/01 03:10:28;;;;;;;1.52;1.52;;;;;;;-1.09;86.70;95978.22;5022601;28;20042;-73
2023/12/01 03:12:56;;;;;;;0.50;0.50;;;;;;;-1.13;86.81;95985.59;5006541;28;20446;-72
2023/12/01 03:15:25;;;;;;;0.52;0.52;;;;;;;-1.13;87.17;95992.63;5022957;28;20457;-72
2023/12/01 03:17:53;;;;;;;1.45;1.45;;;;;;;-1.11;87.22;95991.47;5009095;28;20100;-72
2023/12/01 03:20:21;;;;;;;1.40;1.40;;;;;;;-1.12;87.40;95989.84;5005391;28;20057;-72
2023/12/01 03:22:50;;;;;;;0.90;0.90;;;;;;;-1.14;87.37;95989.19;5009863;28;20069;-73
2023/12/01 03:25:18;;;;;;;1.55;1.55;;;;;;;-1.08;88.04;96002.63;5006642;28;20069;-73
2023/12/01 03:27:46;;;;;;;0.50;0.50;;;;;;;-1.09;88.05;95998.34;5007456;28;20537;-73
2023/12/01 03:30:16;;;;;;;1.23;1.23;;;;;;;-0.99;88.14;96006.88;5003047;28;20078;-73
2023/12/01 03:32:46;;;;;;;1.10;1.10;;;;;;;-0.95;87.48;95998.53;5020712;28;20046;-73
2023/12/01 03:35:16;;;;;;;1.30;1.30;;;;;;;-0.84;87.50;95995.59;5009029;28;20037;-72
2023/12/01 03:37:44;;;;;;;1.27;1.27;;;;;;;-0.80;86.93;96001.31;5007454;28;20046;-72
2023/12/01 03:40:13;;;;;;;1.08;1.08;;;;;;;-0.73;86.33;96012.78;5007747;28;20352;-72
2023/12/01 03:42:42;;;;;;;1.48;1.48;;;;;;;-0.77;86.59;96021.94;5006837;28;20100;-72
2023/12/01 03:45:13;;;;;;;1.42;1.42;;;;;;;-0.87;86.85;96023.91;5007964;28;20136;-72
2023/12/01 03:47:42;;;;;;;0.60;0.60;;;;;;;-0.87;87.16;96021.28;5021894;28;20558;-72
2023/12/01 03:50:12;;;;;;;1.00;1.00;;;;;;;-0.82;87.61;96019.78;5009710;28;20108;-72
2023/12/01 03:52:41;;;;;;;1.23;1.23;;;;;;;-0.71;87.43;96013.41;5007914;28;20140;-72
2023/12/01 03:55:10;;;;;;;1.20;1.20;;;;;;;-0.62;87.01;96015.03;5008981;28;20487;-72
2023/12/01 03:57:38;;;;;;;1.17;1.17;;;;;;;-0.55;87.00;96013.44;5021318;28;20097;-72
2023/12/01 04:00:08;;;;;;;1.30;1.30;;;;;;;-0.54;86.59;96017.69;5021718;28;20511;-72
2023/12/01 04:02:41;;;;;;;1.27;1.27;;;;;;;-0.51;86.49;96029.59;5007017;28;20034;-72
2023/12/01 04:05:17;;;;;;;1.20;1.20;;;;;;;-0.46;86.52;96036.00;5022935;28;20046;-72
2023/12/01 04:07:50;;;;;;;1.08;1.08;;;;;;;-0.36;86.54;96027.97;5010120;28;20073;-72
2023/12/01 04:10:19;;;;;;;1.40;1.40;;;;;;;-0.35;86.37;96029.59;5008066;28;20052;-72
2023/12/01 04:12:47;;;;;;;1.45;1.45;;;;;;;-0.40;86.55;96037.97;5023097;28;20052;-72
2023/12/01 04:15:17;;;;;;;1.25;1.25;;;;;;;-0.35;86.81;96027.00;5003965;28;20046;-72
2023/12/01 04:17:46;;;;;;;0.50;0.50;;;;;;;-0.31;86.49;96014.38;5029316;28;20473;-73
2023/12/01 04:20:25;;;;;;;1.23;1.23;;;;;;;-0.24;86.60;96012.72;5013604;28;20038;-73
2023/12/01 04:22:55;;;;;;;0.70;0.70;;;;;;;-0.23;86.60;95999.44;5011527;28;20404;-73
2023/12/01 04:25:22;;;;;;;1.77;1.77;;;;;;;-0.22;86.54;96003.72;5014592;28;20046;-73
2023/12/01 04:27:51;;;;;;;1.15;1.15;;;;;;;-0.23;86.39;96001.25;5003850;28;20038;-72
2023/12/01 04:30:20;;;;;;;1.40;1.40;;;;;;;-0.19;86.54;95989.44;5003896;28;20608;-72
2023/12/01 04:32:52;;;;;;;1.35;1.35;;;;;;;-0.18;86.54;95985.81;5006582;28;20050;-73
2023/12/01 04:35:23;;;;;;;1.15;1.15;;;;;;;-0.17;86.47;96005.81;5007303;28;20626;-72
2023/12/01 04:37:51;;;;;;;1.48;1.42;;;;;;;-0.20;86.35;95993.84;5004871;28;20038;-72
2023/12/01 04:40:19;;;;;;;1.40;1.40;;;;;;;-0.21;86.61;96002.72;5003941;28;20054;-73
2023/12/01 04:42:48;;;;;;;1.35;1.35;;;;;;;-0.22;86.68;96011.56;5004003;28;20053;-72
2023/12/01 04:45:17;;;;;;;1.40;1.40;;;;;;;-0.20;86.60;96006.16;5005506;28;20037;-73
2023/12/01 04:47:50;;;;;;;0.98;0.98;;;;;;;-0.18;86.59;96012.03;5005280;28;20053;-73
2023/12/01 04:50:19;;;;;;;;;;;;;;;-0.16;86.73;95997.78;5007039;28;20490;-73
2023/12/01 04:52:48;;;;;;;1.25;1.25;;;;;;;-0.14;86.63;96008.13;5003482;28;19922;-72
2023/12/01 04:55:17;;;;;;;1.10;1.10;;;;;;;-0.15;86.35;96014.34;5003807;28;20377;-73
2023/12/01 04:57:46;;;;;;;1.15;1.15;;;;;;;-0.16;86.12;96010.91;5005871;28;20107;-73
2023/12/01 05:00:21;;;;;;;1.10;1.10;;;;;;;-0.14;86.18;96015.97;5005755;28;20045;-72
2023/12/01 05:02:51;;;;;;;1.67;1.67;;;;;;;-0.13;86.09;96021.06;5006455;28;20034;-73
2023/12/01 05:05:20;;;;;;;1.38;1.38;;;;;;;-0.15;86.29;96019.59;5003682;28;20073;-73
2023/12/01 05:07:51;;;;;;;1.15;1.15;;;;;;;-0.12;86.51;96017.44;5008411;28;20042;-73
2023/12/01 05:10:20;;;;;;;0.95;0.95;;;;;;;-0.13;86.22;96028.91;5007967;28;20084;-73
2023/12/01 05:12:50;;;;;;;1.10;1.10;;;;;;;-0.12;86.55;96025.31;5023296;28;20060;-73
2023/12/01 05:15:18;;;;;;;1.48;1.48;;;;;;;-0.11;86.54;96036.63;5004461;28;20571;-72
2023/12/01 05:17:48;;;;;;;2.10;2.05;;;;;;;-0.12;86.40;96037.59;5008031;28;20117;-73
2023/12/01 05:20:17;;;;;;;1.40;1.40;;;;;;;-0.12;86.55;96027.13;5006508;28;20037;-73
2023/12/01 05:22:45;;;;;;;1.38;1.38;;;;;;;-0.11;86.68;96034.00;5005925;28;20156;-73
2023/12/01 05:25:15;;;;;;;1.25;1.25;;;;;;;-0.09;86.63;96021.53;5001706;28;20057;-74
2023/12/01 05:27:44;;;;;;;1.00;1.00;;;;;;;-0.09;86.30;96024.97;5006200;28;20503;-73
2023/12/01 05:30:16;;;;;;;1.25;1.25;;;;;;;-0.08;86.16;96041.50;5000667;28;20038;-73
2023/12/01 05:32:44;;;;;;;1.08;1.08;;;;;;;-0.13;86.13;96046.44;5004359;28;20034;-73
2023/12/01 05:35:13;;;;;;;1.10;1.10;;;;;;;-0.13;86.46;96059.56;5003127;28;20388;-74
2023/12/01 05:37:41;;;;;;;1.17;1.17;;;;;;;-0.12;86.40;96038.44;5003601;28;20136;-74
2023/12/01 05:40:10;;;;;;;1.25;1.25;;;;;;;-0.10;86.59;96040.84;5006040;28;20526;-72
2023/12/01 05:42:41;;;;;;;1.35;1.35;;;;;;;-0.14;86.39;96040.38;5006532;28;20050;-73
2023/12/01 05:45:11;;;;;;;1.45;1.45;;;;;;;-0.14;86.41;96036.94;5020015;28;20042;-73
2023/12/01 05:47:42;;;;;;;1.20;1.20;;;;;;;-0.19;86.14;96042.69;5006893;28;20109;-73
2023/12/01 05:50:14;;;;;;;1.50;1.50;;;;;;;-0.21;86.43;96039.44;5005619;28;20050;-74
2023/12/01 05:52:43;;;;;;;1.35;1.35;;;;;;;-0.20;86.37;96037.59;5006010;28;20046;-73
2023/12/01 05:55:14;;;;;;;1.17;1.17;;;;;;;-0.18;86.51;96046.13;5003474;28;20041;-73
2023/12/01 05:57:47;;;;;;;1.50;1.50;;;;;;;-0.20;86.37;96034.97;5005348;28;20038;-70
2023/12/01 06:00:17;;;;;;;1.15;1.15;;;;;;;-0.20;86.55;96038.41;5004995;28;20046;-73
2023/12/01 06:02:45;;;;;;;1.48;1.48;;;;;;;-0.31;86.52;96051.06;5005375;28;20391;-73
2023/12/01 06:05:15;;;;;;;1.10;1.10;;;;;;;-0.28;86.99;96051.53;5003876;28;20124;-73
2023/12/01 06:07:43;;;;;;;1.50;1.50;;;;;;;-0.23;86.76;96051.06;5007060;28;20129;-71
2023/12/01 06:10:11;;;;;;;0.60;0.60;;;;;;;-0.22;86.48;96057.94;5009188;28;20423;-71
2023/12/01 06:12:39;;;;;;;1.30;1.30;;;;;;;-0.19;86.68;96057.59;5008398;28;20487;-71
2023/12/01 06:15:10;;;;;;;1.98;1.92;;;;;;;-0.21;86.34;96044.66;5010516;28;20141;-71
2023/12/01 06:17:38;;;;;;;1.60;1.60;;;;;;;-0.17;85.88;96061.69;5010702;28;21699;-71
2023/12/01 06:20:16;;;;;;;1.60;1.60;;;;;;;-0.16;86.19;96065.13;5009616;28;20053;-73
2023/12/01 06:22:46;;;;;;;1.88;1.77;;;;;;;-0.33;86.21;96066.97;5010252;28;20069;-73
2023/12/01 06:25:14;;;;;;;1.55;1.55;;;;;;;-0.34;86.71;96083.66;5010799;28;20041;-73
2023/12/01 06:27:42;;;;;;;1.77;1.73;;;;;;;-0.32;86.63;96083.50;5005168;28;20050;-73
2023/12/01 06:30:13;;;;;;;1.48;1.48;;;;;;;-0.27;86.78;96084.63;5008667;28;20053;-73
2023/12/01 06:32:41;;;;;;;1.33;1.33;;;;;;;-0.28;86.58;96090.84;5007030;28;20073;-71
2023/12/01 06:35:10;;;;;;;1.70;1.67;;;;;;;-0.33;86.76;96085.31;5005172;28;20222;-71
2023/12/01 06:37:38;;;;;;;1.50;1.50;;;;;;;-0.31;86.60;96085.16;5008499;28;20044;-71
2023/12/01 06:40:11;;;;;;;2.00;1.90;;;;;;;-0.44;87.18;96065.50;5006494;28;20053;-71
2023/12/01 06:42:41;;;;;;;1.83;1.75;;;;;;;-0.41;87.19;96073.00;5007466;28;20077;-71
2023/12/01 06:45:11;;;;;;;1.70;1.60;;;;;;;-0.47;87.63;96080.72;5008372;28;20507;-71
2023/12/01 06:47:40;;;;;;;2.55;2.45;;;;;;;-0.45;87.50;96076.94;5009064;28;20093;-71
2023/12/01 06:50:10;;;;;;;1.80;1.70;;;;;;;-0.45;88.01;96091.84;5010325;28;20124;-73
2023/12/01 06:52:38;;;;;;;1.50;1.50;;;;;;;-0.40;87.58;96100.84;5009318;28;20034;-71
2023/12/01 06:55:07;;;;;;;1.10;1.10;;;;;;;-0.42;87.74;96109.88;5009359;28;20410;-73
2023/12/01 06:57:37;;;;;;;1.60;1.50;;;;;;;-0.43;87.84;96109.06;5006891;28;20493;-71
2023/12/01 07:00:08;;;;;;;2.10;2.00;;;;;;;-0.45;87.82;96111.00;5007542;28;20066;-72
2023/12/01 07:02:38;;;;;;;2.80;2.70;;;;;;;-0.44;87.98;96107.41;5008427;28;20467;-73
2023/12/01 07:05:08;;;;;;;1.55;1.55;;;;;;;-0.39;87.90;96114.78;5009431;28;20045;-72
2023/12/01 07:07:37;;;;;;;2.03;1.92;;;;;;;-0.37;87.86;96116.25;5009834;28;20506;-73
2023/12/01 07:10:07;;;;;;;2.00;1.90;;;;;;;-0.39;88.48;96125.25;5006222;28;20045;-72
2023/12/01 07:12:35;;;;;;;2.22;2.13;;;;;;;-0.36;88.18;96124.94;5009470;28;20041;-73
2023/12/01 07:15:03;;;;;;;2.28;2.17;;;;;;;-0.39;88.26;96131.31;5005555;28;20049;-71
2023/12/01 07:17:31;;;;;;;1.80;1.70;;;;;;;-0.51;89.36;96139.66;5009414;28;20042;-70
2023/12/01 07:20:00;;;;;;;2.15;2.05;;;;;;;-0.47;89.10;96146.22;5009762;28;20042;-71
2023/12/01 07:22:28;;;;;;;1.95;1.85;;;;;;;-0.48;89.55;96149.81;5009230;28;20042;-70
2023/12/01 07:24:55;;;;;;;2.05;1.95;;;;;;;-0.44;89.29;96157.19;5008286;28;20064;-71
2023/12/01 07:27:25;;;;;;;2.40;2.20;;;;;;;-0.42;89.53;96142.13;5006759;28;20063;-71
2023/12/01 07:29:53;;;;;;;2.75;2.65;;;;;;;-0.40;89.44;96155.06;5008241;28;20054;-73
2023/12/01 07:32:20;;;;;;;2.95;1.90;;;;;;;-0.44;89.65;96153.75;5009633;28;20440;-73
2023/12/01 07:34:49;;;;;;;2.50;2.40;;;;;;;-0.46;90.24;96151.28;5007619;28;20139;-71
2023/12/01 07:37:19;;;;;;;2.17;2.08;;;;;;;-0.46;90.42;96155.72;5008346;28;20092;-71
2023/12/01 07:39:47;;;;;;;1.90;1.80;;;;;;;-0.58;90.79;96164.88;5008155;28;20048;-70
2023/12/01 07:42:14;;;;;;;2.30;2.20;;;;;;;-0.57;90.88;96161.25;5008907;28;20045;-71
2023/12/01 07:44:42;;;;;;;2.13;2.03;;;;;;;-0.59;91.33;96168.47;5008511;28;20140;-73
2023/12/01 07:47:11;;;;;;;2.25;2.15;;;;;;;-0.59;91.52;96169.28;5007845;28;20128;-71
2023/12/01 07:49:40;;;;;;;1.85;1.75;;;;;;;-0.64;91.61;96170.75;5006961;28;20050;-73
2023/12/01 07:52:09;;;;;;;2.67;2.33;;;;;;;-0.66;92.14;96183.19;5007685;28;20045;-72
2023/12/01 07:54:38;;;;;;;2.97;2.85;;;;;;;-0.62;92.17;96180.06;5004504;28;20047;-72
2023/12/01 07:57:06;;;;;;;4.10;2.67;;;;;;;-0.61;92.23;96179.09;5008150;28;20522;-72
2023/12/01 07:59:34;;;;;;;2.40;2.30;;;;;;;-0.60;92.21;96180.72;5010021;28;20081;-72
2023/12/01 08:02:02;;;;;;;2.10;2.00;;;;;;;-0.56;92.68;96183.88;5010143;28;20507;-73
2023/12/01 08:04:31;;;;;;;2.03;1.90;;;;;;;-0.54;92.58;96181.91;5006878;28;20519;-73
2023/12/01 08:06:59;;;;;;;2.90;2.70;;;;;;;-0.49;92.50;96177.81;5005288;28;20125;-71
2023/12/01 08:09:31;;;;;;;2.42;2.22;;;;;;;-0.61;92.71;96183.50;5046769;23;20073;-71
2023/12/01 08:12:00;;;;;;;2.83;2.72;;;;;;;-0.73;92.79;96180.41;5007157;28;20054;-71
2023/12/01 08:14:28;;;;;;;3.10;2.40;;;;;;;-0.75;93.21;96179.72;5007137;28;20136;-71
2023/12/01 08:16:56;;;;;;;2.25;2.15;;;;;;;-0.92;93.89;96181.47;5025348;28;20688;-71
2023/12/01 08:19:24;;;;;;;2.20;2.10;;;;;;;-0.90;94.42;96176.91;5017080;28;20417;-72
2023/12/01 08:21:52;;;;;;;0.88;0.88;;;;;;;-0.83;94.39;96195.44;5027575;28;20411;-72
2023/12/01 08:24:20;;;;;;;2.05;1.95;;;;;;;-0.93;94.76;96200.78;5025848;28;20103;-71
2023/12/01 08:27:00;;;;;;;2.30;2.20;;;;;;;-0.87;94.45;96194.91;5029235;28;20055;-71
2023/12/01 08:29:28;;;;;;;1.65;1.65;;;;;;;-0.83;94.07;96196.22;5027517;28;20058;-71
2023/12/01 08:31:56;;;;;;;1.67;1.63;;;;;;;-0.83;93.98;96195.44;5025454;28;20077;-71
2023/12/01 08:34:25;;;;;;;1.58;1.48;;;;;;;-0.87;94.26;96199.34;5027459;28;20052;-72
2023/12/01 08:36:53;;;;;;;1.95;1.85;;;;;;;-0.95;94.68;96205.38;5024957;28;20073;-71
2023/12/01 08:39:21;;;;;;;1.05;1.05;;;;;;;-0.85;94.33;96205.25;5024541;28;20440;-71
2023/12/01 08:41:53;;;;;;;1.58;1.52;;;;;;;-0.90;93.88;96217.97;5023437;28;20152;-71
2023/12/01 08:44:22;;;;;;;1.65;1.58;;;;;;;-0.86;93.96;96214.88;5042298;28;20133;-71
2023/12/01 08:46:49;;;;;;;1.73;1.65;;;;;;;-0.83;93.74;96209.31;5025848;28;20136;-71
2023/12/01 08:49:17;;;;;;;1.95;1.85;;;;;;;-0.82;93.80;96208.34;5026353;28;20478;-71
2023/12/01 08:51:45;;;;;;;1.98;1.88;;;;;;;-0.78;93.35;96211.47;5024947;28;20059;-71
2023/12/01 08:54:12;;;;;;;1.88;1.77;;;;;;;-0.78;93.24;96212.28;5023299;28;20041;-71
2023/12/01 08:56:48;;;;;;;1.88;1.77;;;;;;;-0.89;93.68;96211.75;5020692;28;20391;-72
2023/12/01 08:59:16;;;;;;;1.83;1.73;;;;;;;-0.88;93.50;96200.31;5025494;28;20081;-72
2023/12/01 09:01:45;;;;;;;1.35;1.35;;;;;;;-0.80;93.12;96195.09;5023970;28;20045;-71
2023/12/01 09:04:13;;;;;;;1.40;1.40;;;;;;;-0.80;92.94;96197.72;5043203;28;20048;-71
2023/12/01 09:06:41;;;;;;;0.80;0.80;;;;;;;-0.80;93.17;96192.47;5024471;28;20475;-71
2023/12/01 09:09:08;;;;;;;1.20;1.20;;;;;;;-0.76;93.07;96194.63;5024213;28;20052;-71
2023/12/01 09:11:36;;;;;;;1.88;1.77;;;;;;;-0.75;92.59;96205.94;5021813;28;20092;-71
2023/12/01 09:14:04;;;;;;;1.58;1.58;;;;;;;-0.73;92.86;96203.16;5026636;28;20133;-71
2023/12/01 09:16:31;;;;;;;1.58;1.50;;;;;;;-0.70;92.86;96213.28;5024368;28;20044;-72
2023/12/01 09:19:00;;;;;;;1.73;1.70;;;;;;;-0.68;92.39;96212.16;5026122;28;20103;-71
2023/12/01 09:21:31;;;;;;;2.03;1.92;;;;;;;-0.68;92.50;96211.34;5023539;28;20041;-72
2023/12/01 09:23:59;;;;;;;1.52;1.42;;;;;;;-0.85;91.97;96227.00;5025532;28;20037;-71
2023/12/01 09:26:28;;;;;;;1.42;1.40;;;;;;;-0.80;92.24;96227.34;5026119;28;20069;-72
2023/12/01 09:28:56;;;;;;;2.15;2.05;;;;;;;-0.83;92.37;96235.50;5024918;28;20045;-72
2023/12/01 09:31:23;;;;;;;2.05;1.95;;;;;;;-0.84;92.34;96238.31;5027289;28;20057;-71
2023/12/01 09:33:51;;;;;;;1.92;1.83;;;;;;;-0.97;92.67;96227.44;5024792;28;20160;-71
2023/12/01 09:36:20;;;;;;;0.82;0.82;;;;;;;-0.91;92.76;96245.94;5025749;28;20922;-71
2023/12/01 09:38:49;;;;;;;1.67;1.67;;;;;;;-0.94;92.86;96230.56;5041028;28;20057;-71
2023/12/01 09:41:18;;;;;;;1.63;1.63;;;;;;;-0.94;92.67;96229.75;5027628;28;20041;-71
2023/12/01 09:43:47;;;;;;;1.50;1.50;;;;;;;-1.06;93.28;96234.44;5039709;28;20045;-71
2023/12/01 09:46:16;;;;;;;1.73;1.63;;;;;;;-1.02;93.32;96235.75;5026954;28;20045;-71
2023/12/01 09:48:47;;;;;;;1.35;1.35;;;;;;;-0.97;93.16;96251.00;5026307;28;20050;-71
2023/12/01 09:51:15;;;;;;;1.17;1.17;;;;;;;-0.98;93.03;96244.13;5024846;28;20057;-71
2023/12/01 09:53:44;;;;;;;1.70;1.70;;;;;;;-1.04;93.39;96240.34;5023130;28;20033;-71
2023/12/01 09:56:12;;;;;;;1.90;1.80;;;;;;;-1.01;93.39;96242.63;5033114;28;20060;-71
2023/12/01 09:58:42;;;;;;;1.75;1.73;;;;;;;-1.04;93.64;96242.13;5025791;28;20056;-71
2023/12/01 10:01:10;;;;;;;1.70;1.60;;;;;;;-0.99;93.49;96245.09;5029688;28;20045;-71
2023/12/01 10:03:38;;;;;;;2.10;2.00;;;;;;;-1.02;93.75;96237.53;5024370;28;20160;-71
2023/12/01 10:06:08;;;;;;;2.67;2.58;;;;;;;-1.03;93.37;96236.72;5022810;28;20049;-72
2023/12/01 10:08:36;;;;;;;1.40;1.40;;;;;;;-1.04;93.58;96242.13;5025662;28;20069;-70
2023/12/01 10:11:18;;;;;;;1.63;1.55;;;;;;;-0.95;93.47;96234.16;5027547;28;20045;-71
2023/12/01 10:13:48;;;;;;;2.40;2.30;;;;;;;-1.01;93.25;96232.16;5038794;28;20045;-71
2023/12/01 10:16:16;;;;;;;1.70;1.70;;;;;;;-0.91;93.69;96230.25;5023741;28;20510;-71
2023/12/01 10:18:57;;;;;;;1.77;1.67;;;;;;;-0.82;93.48;96234.53;5025995;28;20047;-71
2023/12/01 10:21:42;;;;;;;1.50;1.50;;;;;;;-0.74;93.09;96225.91;5022885;28;20050;-71
2023/12/01 10:24:14;;;;;;;2.25;1.73;;;;;;;-0.70;92.88;96219.34;5026151;28;20506;-71
2023/12/01 10:26:43;;;;;;;2.00;1.90;;;;;;;-0.70;92.32;96216.72;5024517;28;20040;-71
2023/12/01 10:29:28;;;;;;;1.58;1.58;;;;;;;-0.69;92.06;96228.03;5024679;28;20052;-71
2023/12/01 10:31:57;;;;;;;;;;;;;;;-0.66;92.09;96225.91;5024423;28;20788;-71
2023/12/01 10:34:25;;;;;;;2.10;2.00;;;;;;;-0.73;92.14;96224.94;5026644;28;19920;-71
2023/12/01 10:36:53;;;;;;;2.00;1.90;;;;;;;-0.85;92.11;96213.91;5022239;28;20056;-71
2023/12/01 10:39:25;;;;;;;2.00;1.90;;;;;;;-0.89;91.97;96217.00;5026626;28;20049;-71
2023/12/01 10:41:55;;;;;;;1.75;1.67;;;;;;;-0.90;91.85;96217.97;5023625;28;20105;-71
2023/12/01 10:44:29;;;;;;;1.48;1.48;;;;;;;-1.02;92.01;96225.28;5024956;28;20045;-71
2023/12/01 10:46:57;;;;;;;1.48;1.38;;;;;;;-1.19;92.45;96227.00;5022232;28;20053;-71
2023/12/01 10:49:24;;;;;;;2.15;2.05;;;;;;;-1.21;93.00;96223.72;5022885;28;20131;-71
2023/12/01 10:51:53;;;;;;;2.00;1.90;;;;;;;-1.13;92.66;96210.66;5025307;28;20049;-71
2023/12/01 10:54:23;;;;;;;1.63;1.60;;;;;;;-1.10;93.11;96220.00;5024906;28;20065;-72
2023/12/01 10:56:56;;;;;;;2.55;1.48;;;;;;;-1.11;93.07;96224.44;5027033;28;20060;-71
2023/12/01 10:59:26;;;;;;;1.75;1.75;;;;;;;-1.04;92.40;96226.44;5028033;28;20482;-72
2023/12/01 11:01:55;;;;;;;1.60;1.55;;;;;;;-1.01;92.74;96218.25;5029713;28;20041;-72
2023/12/01 11:04:26;;;;;;;1.98;1.88;;;;;;;-1.02;92.59;96234.94;5026373;28;20034;-71
2023/12/01 11:07:06;;;;;;;1.55;1.55;;;;;;;-1.08;92.57;96233.78;5030060;28;20056;-71
2023/12/01 11:09:42;;;;;;;1.63;1.63;;;;;;;-1.11;92.73;96218.38;5028252;28;20055;-71
2023/12/01 11:12:15;;;;;;;1.60;1.50;;;;;;;-1.05;92.60;96223.00;5030291;28;20358;-71
2023/12/01 11:14:45;;;;;;;1.77;1.67;;;;;;;-1.17;92.73;96209.38;5029630;28;20042;-71
2023/12/01 11:17:14;;;;;;;1.50;1.50;;;;;;;-1.25;92.90;96217.19;5030869;28;20494;-71
2023/12/01 11:19:45;;;;;;;2.33;2.22;;;;;;;-1.26;93.21;96219.94;5044783;28;20045;-71
2023/12/01 11:22:27;;;;;;;1.65;1.55;;;;;;;-1.32;93.33;96221.38;5028879;28;20406;-71
2023/12/01 11:24:56;;;;;;;1.88;1.83;;;;;;;-1.34;93.80;96219.88;5027803;28;20494;-71
2023/12/01 11:27:26;;;;;;;1.75;1.65;;;;;;;-1.43;93.65;96223.44;5025987;28;20052;-71
2023/12/01 11:30:06;;;;;;;1.95;1.85;;;;;;;-1.41;93.86;96217.06;5027960;28;20110;-71
2023/12/01 11:32:39;;;;;;;2.15;2.05;;;;;;;-1.40;93.74;96217.91;5029173;28;20064;-71
2023/12/01 11:35:11;;;;;;;2.03;1.92;;;;;;;-1.40;94.01;96217.91;5028707;28;20133;-71
2023/12/01 11:38:04;;;;;;;1.90;1.80;;;;;;;-1.42;93.97;96217.22;5026195;28;20037;-71
2023/12/01 11:40:41;;;;;;;1.20;1.20;;;;;;;-1.33;93.91;96216.28;5015816;28;20906;-71
2023/12/01 11:43:11;;;;;;;2.03;1.95;;;;;;;-1.44;94.25;96213.94;5027148;28;20053;-71